sensor_id;sensor_type;location;lat;lon;timestamp;temperature;humidity
23869;DHT22;12115;47.128;15.422;2022-10-15T00:01:27;12.40;99.90
23869;DHT22;12115;47.128;15.422;2022-10-15T00:03:55;12.30;99.90
23869;DHT22;12115;47.128;15.422;2022-10-15T00:06:22;12.30;99.90
23869;DHT22;12115;47.128;15.422;2022-10-15T00:08:49;12.30;99.90
23869;DHT22;12115;47.128;15.422;2022-10-15T00:11:18;12.30;99.90
23869;DHT22;12115;47.128;15.422;2022-10-15T00:13:47;12.30;99.90
23869;DHT22;12115;47.128;15.422;2022-10-15T00:16:17;12.30;99.90
23869;DHT22;12115;47.128;15.422;2022-10-15T00:18:44;12.20;99.90
23869;DHT22;12115;47.128;15.422;2022-10-15T00:21:14;12.20;99.90
23869;DHT22;12115;47.128;15.422;2022-10-15T00:23:42;12.10;99.90
23869;DHT22;12115;47.128;15.422;2022-10-15T00:26:15;12.10;99.90
23869;DHT22;12115;47.128;15.422;2022-10-15T00:28:43;12.10;99.90
23869;DHT22;12115;47.128;15.422;2022-10-15T00:31:12;12.00;99.90
23869;DHT22;12115;47.128;15.422;2022-10-15T00:33:39;11.90;99.90
23869;DHT22;12115;47.128;15.422;2022-10-15T00:36:13;11.80;99.90
23869;DHT22;12115;47.128;15.422;2022-10-15T00:38:41;11.80;99.90
23869;DHT22;12115;47.128;15.422;2022-10-15T00:41:18;11.80;99.90
23869;DHT22;12115;47.128;15.422;2022-10-15T00:43:52;11.90;99.90
23869;DHT22;12115;47.128;15.422;2022-10-15T00:46:30;11.80;99.90
23869;DHT22;12115;47.128;15.422;2022-10-15T00:51:37;11.80;99.90
23869;DHT22;12115;47.128;15.422;2022-10-15T00:54:06;11.80;99.90
23869;DHT22;12115;47.128;15.422;2022-10-15T00:56:35;11.70;99.90
23869;DHT22;12115;47.128;15.422;2022-10-15T00:59:04;11.70;99.90
23869;DHT22;12115;47.128;15.422;2022-10-15T01:01:32;11.70;99.90
23869;DHT22;12115;47.128;15.422;2022-10-15T01:04:01;11.60;99.90
23869;DHT22;12115;47.128;15.422;2022-10-15T01:06:28;11.60;99.90
23869;DHT22;12115;47.128;15.422;2022-10-15T01:08:55;11.60;99.90
23869;DHT22;12115;47.128;15.422;2022-10-15T01:11:51;11.60;99.90
23869;DHT22;12115;47.128;15.422;2022-10-15T01:14:48;11.50;99.90
23869;DHT22;12115;47.128;15.422;2022-10-15T01:17:46;11.50;99.90
23869;DHT22;12115;47.128;15.422;2022-10-15T01:23:18;11.50;99.90
23869;DHT22;12115;47.128;15.422;2022-10-15T01:39:31;11.40;99.90
23869;DHT22;12115;47.128;15.422;2022-10-15T01:42:29;11.30;99.90
23869;DHT22;12115;47.128;15.422;2022-10-15T01:45:04;11.30;99.90
23869;DHT22;12115;47.128;15.422;2022-10-15T01:47:57;11.30;99.90
23869;DHT22;12115;47.128;15.422;2022-10-15T01:50:27;11.30;99.90
23869;DHT22;12115;47.128;15.422;2022-10-15T01:52:58;11.30;99.90
23869;DHT22;12115;47.128;15.422;2022-10-15T01:55:27;11.30;99.90
23869;DHT22;12115;47.128;15.422;2022-10-15T01:57:57;11.20;99.90
23869;DHT22;12115;47.128;15.422;2022-10-15T02:00:26;11.20;99.90
23869;DHT22;12115;47.128;15.422;2022-10-15T02:02:58;11.20;99.90
23869;DHT22;12115;47.128;15.422;2022-10-15T02:05:29;11.20;99.90
23869;DHT22;12115;47.128;15.422;2022-10-15T02:07:59;11.20;99.90
23869;DHT22;12115;47.128;15.422;2022-10-15T02:16:17;11.20;99.90
23869;DHT22;12115;47.128;15.422;2022-10-15T02:21:38;11.10;99.90
23869;DHT22;12115;47.128;15.422;2022-10-15T02:24:18;11.20;99.90
23869;DHT22;12115;47.128;15.422;2022-10-15T02:26:46;11.20;99.90
23869;DHT22;12115;47.128;15.422;2022-10-15T02:29:19;11.20;99.90
23869;DHT22;12115;47.128;15.422;2022-10-15T02:31:49;11.20;99.90
23869;DHT22;12115;47.128;15.422;2022-10-15T02:34:21;11.20;99.90
23869;DHT22;12115;47.128;15.422;2022-10-15T02:36:52;11.20;99.90
23869;DHT22;12115;47.128;15.422;2022-10-15T02:39:22;11.20;99.90
23869;DHT22;12115;47.128;15.422;2022-10-15T02:41:53;11.20;99.90
23869;DHT22;12115;47.128;15.422;2022-10-15T02:44:20;11.20;99.90
23869;DHT22;12115;47.128;15.422;2022-10-15T02:46:47;11.20;99.90
23869;DHT22;12115;47.128;15.422;2022-10-15T02:49:16;11.20;99.90
23869;DHT22;12115;47.128;15.422;2022-10-15T02:51:43;11.30;99.90
23869;DHT22;12115;47.128;15.422;2022-10-15T02:54:15;11.30;99.90
23869;DHT22;12115;47.128;15.422;2022-10-15T02:56:42;11.30;99.90
23869;DHT22;12115;47.128;15.422;2022-10-15T02:59:09;11.20;99.90
23869;DHT22;12115;47.128;15.422;2022-10-15T03:01:37;11.30;99.90
23869;DHT22;12115;47.128;15.422;2022-10-15T03:04:04;11.30;99.90
23869;DHT22;12115;47.128;15.422;2022-10-15T03:06:32;11.30;99.90
23869;DHT22;12115;47.128;15.422;2022-10-15T03:08:59;11.30;99.90
23869;DHT22;12115;47.128;15.422;2022-10-15T03:11:28;11.30;99.90
23869;DHT22;12115;47.128;15.422;2022-10-15T03:13:55;11.30;99.90
23869;DHT22;12115;47.128;15.422;2022-10-15T03:16:23;11.30;99.90
23869;DHT22;12115;47.128;15.422;2022-10-15T03:18:50;11.30;99.90
23869;DHT22;12115;47.128;15.422;2022-10-15T03:21:17;11.20;99.90
23869;DHT22;12115;47.128;15.422;2022-10-15T03:23:45;11.30;99.90
23869;DHT22;12115;47.128;15.422;2022-10-15T03:26:17;11.30;99.90
23869;DHT22;12115;47.128;15.422;2022-10-15T03:28:44;11.30;99.90
23869;DHT22;12115;47.128;15.422;2022-10-15T03:31:18;11.30;99.90
23869;DHT22;12115;47.128;15.422;2022-10-15T03:33:47;11.30;99.90
23869;DHT22;12115;47.128;15.422;2022-10-15T03:36:17;11.20;99.90
23869;DHT22;12115;47.128;15.422;2022-10-15T03:38:44;11.20;99.90
23869;DHT22;12115;47.128;15.422;2022-10-15T03:41:12;11.20;99.90
23869;DHT22;12115;47.128;15.422;2022-10-15T03:43:40;11.20;99.90
23869;DHT22;12115;47.128;15.422;2022-10-15T03:46:10;11.20;99.90
23869;DHT22;12115;47.128;15.422;2022-10-15T03:48:41;11.20;99.90
23869;DHT22;12115;47.128;15.422;2022-10-15T03:51:11;11.20;99.90
23869;DHT22;12115;47.128;15.422;2022-10-15T03:53:40;11.20;99.90
23869;DHT22;12115;47.128;15.422;2022-10-15T03:56:07;11.20;99.90
23869;DHT22;12115;47.128;15.422;2022-10-15T03:58:37;11.20;99.90
23869;DHT22;12115;47.128;15.422;2022-10-15T04:01:10;11.20;99.90
23869;DHT22;12115;47.128;15.422;2022-10-15T04:03:37;11.20;99.90
23869;DHT22;12115;47.128;15.422;2022-10-15T04:06:05;11.10;99.90
23869;DHT22;12115;47.128;15.422;2022-10-15T04:08:33;11.10;99.90
23869;DHT22;12115;47.128;15.422;2022-10-15T04:11:11;11.20;99.90
23869;DHT22;12115;47.128;15.422;2022-10-15T04:13:38;11.20;99.90
23869;DHT22;12115;47.128;15.422;2022-10-15T04:16:06;11.20;99.90
23869;DHT22;12115;47.128;15.422;2022-10-15T04:18:33;11.20;99.90
23869;DHT22;12115;47.128;15.422;2022-10-15T04:21:00;11.20;99.90
23869;DHT22;12115;47.128;15.422;2022-10-15T04:23:27;11.20;99.90
23869;DHT22;12115;47.128;15.422;2022-10-15T04:26:13;11.20;99.90
23869;DHT22;12115;47.128;15.422;2022-10-15T04:28:40;11.20;99.90
23869;DHT22;12115;47.128;15.422;2022-10-15T04:31:08;11.30;99.90
23869;DHT22;12115;47.128;15.422;2022-10-15T04:33:35;11.20;99.90
23869;DHT22;12115;47.128;15.422;2022-10-15T04:36:05;11.20;99.90
23869;DHT22;12115;47.128;15.422;2022-10-15T04:38:55;11.20;99.90
23869;DHT22;12115;47.128;15.422;2022-10-15T04:41:38;11.20;99.90
23869;DHT22;12115;47.128;15.422;2022-10-15T04:44:08;11.20;99.90
23869;DHT22;12115;47.128;15.422;2022-10-15T04:46:37;11.30;99.90
23869;DHT22;12115;47.128;15.422;2022-10-15T04:49:21;11.30;99.90
23869;DHT22;12115;47.128;15.422;2022-10-15T04:51:49;11.20;99.90
23869;DHT22;12115;47.128;15.422;2022-10-15T04:54:26;11.20;99.90
23869;DHT22;12115;47.128;15.422;2022-10-15T04:57:02;11.20;99.90
23869;DHT22;12115;47.128;15.422;2022-10-15T04:59:30;11.30;99.90
23869;DHT22;12115;47.128;15.422;2022-10-15T05:02:17;11.30;99.90
23869;DHT22;12115;47.128;15.422;2022-10-15T05:04:50;11.30;99.90
23869;DHT22;12115;47.128;15.422;2022-10-15T05:07:17;11.30;99.90
23869;DHT22;12115;47.128;15.422;2022-10-15T05:09:45;11.30;99.90
23869;DHT22;12115;47.128;15.422;2022-10-15T05:12:13;11.30;99.90
23869;DHT22;12115;47.128;15.422;2022-10-15T05:14:40;11.30;99.90
23869;DHT22;12115;47.128;15.422;2022-10-15T05:17:17;11.30;99.90
23869;DHT22;12115;47.128;15.422;2022-10-15T05:19:44;11.30;99.90
23869;DHT22;12115;47.128;15.422;2022-10-15T05:22:19;11.30;99.90
23869;DHT22;12115;47.128;15.422;2022-10-15T05:24:51;11.30;99.90
23869;DHT22;12115;47.128;15.422;2022-10-15T05:27:26;11.30;99.90
23869;DHT22;12115;47.128;15.422;2022-10-15T05:29:53;11.30;99.90
23869;DHT22;12115;47.128;15.422;2022-10-15T05:32:20;11.30;99.90
23869;DHT22;12115;47.128;15.422;2022-10-15T05:34:50;11.40;99.90
23869;DHT22;12115;47.128;15.422;2022-10-15T05:37:17;11.40;99.90
23869;DHT22;12115;47.128;15.422;2022-10-15T05:39:44;11.40;99.90
23869;DHT22;12115;47.128;15.422;2022-10-15T05:42:11;11.40;99.90
23869;DHT22;12115;47.128;15.422;2022-10-15T05:44:43;11.40;99.90
23869;DHT22;12115;47.128;15.422;2022-10-15T05:47:10;11.40;99.90
23869;DHT22;12115;47.128;15.422;2022-10-15T05:49:39;11.50;99.90
23869;DHT22;12115;47.128;15.422;2022-10-15T05:52:14;11.50;99.90
23869;DHT22;12115;47.128;15.422;2022-10-15T05:55:02;11.50;99.90
23869;DHT22;12115;47.128;15.422;2022-10-15T05:57:29;11.50;99.90
23869;DHT22;12115;47.128;15.422;2022-10-15T05:59:56;11.50;99.90
23869;DHT22;12115;47.128;15.422;2022-10-15T06:02:23;11.60;99.90
23869;DHT22;12115;47.128;15.422;2022-10-15T06:04:50;11.60;99.90
23869;DHT22;12115;47.128;15.422;2022-10-15T06:07:19;11.60;99.90
23869;DHT22;12115;47.128;15.422;2022-10-15T06:09:46;11.60;99.90
23869;DHT22;12115;47.128;15.422;2022-10-15T06:12:14;11.60;99.90
23869;DHT22;12115;47.128;15.422;2022-10-15T06:14:41;11.70;99.90
23869;DHT22;12115;47.128;15.422;2022-10-15T06:17:08;11.70;99.90
23869;DHT22;12115;47.128;15.422;2022-10-15T06:19:35;11.70;99.90
23869;DHT22;12115;47.128;15.422;2022-10-15T06:22:02;11.80;99.90
23869;DHT22;12115;47.128;15.422;2022-10-15T06:24:29;11.70;99.90
23869;DHT22;12115;47.128;15.422;2022-10-15T06:26:57;11.70;99.90
23869;DHT22;12115;47.128;15.422;2022-10-15T06:29:25;11.70;99.90
23869;DHT22;12115;47.128;15.422;2022-10-15T06:31:53;11.70;99.90
23869;DHT22;12115;47.128;15.422;2022-10-15T06:34:20;11.80;99.90
23869;DHT22;12115;47.128;15.422;2022-10-15T06:36:47;11.80;99.90
23869;DHT22;12115;47.128;15.422;2022-10-15T06:39:14;11.80;99.90
23869;DHT22;12115;47.128;15.422;2022-10-15T06:41:43;11.80;99.90
23869;DHT22;12115;47.128;15.422;2022-10-15T06:44:10;11.90;99.90
23869;DHT22;12115;47.128;15.422;2022-10-15T06:46:37;11.90;99.90
23869;DHT22;12115;47.128;15.422;2022-10-15T06:49:04;11.90;99.90
23869;DHT22;12115;47.128;15.422;2022-10-15T06:51:33;11.90;99.90
23869;DHT22;12115;47.128;15.422;2022-10-15T06:54:00;11.90;99.90
23869;DHT22;12115;47.128;15.422;2022-10-15T06:56:27;12.00;99.90
23869;DHT22;12115;47.128;15.422;2022-10-15T06:58:54;11.90;99.90
23869;DHT22;12115;47.128;15.422;2022-10-15T07:01:21;12.00;99.90
23869;DHT22;12115;47.128;15.422;2022-10-15T07:03:49;12.00;99.90
23869;DHT22;12115;47.128;15.422;2022-10-15T07:06:16;12.00;99.90
23869;DHT22;12115;47.128;15.422;2022-10-15T07:08:43;12.00;99.90
23869;DHT22;12115;47.128;15.422;2022-10-15T07:11:11;12.00;99.90
23869;DHT22;12115;47.128;15.422;2022-10-15T07:13:38;12.10;99.90
23869;DHT22;12115;47.128;15.422;2022-10-15T07:16:10;12.10;99.90
23869;DHT22;12115;47.128;15.422;2022-10-15T07:18:38;12.10;99.90
23869;DHT22;12115;47.128;15.422;2022-10-15T07:21:06;12.20;99.90
23869;DHT22;12115;47.128;15.422;2022-10-15T07:23:39;12.30;99.90
23869;DHT22;12115;47.128;15.422;2022-10-15T07:26:06;12.30;99.90
23869;DHT22;12115;47.128;15.422;2022-10-15T07:28:33;12.30;99.90
23869;DHT22;12115;47.128;15.422;2022-10-15T07:31:02;12.40;99.90
23869;DHT22;12115;47.128;15.422;2022-10-15T07:33:30;12.40;99.90
23869;DHT22;12115;47.128;15.422;2022-10-15T07:36:08;12.40;99.90
23869;DHT22;12115;47.128;15.422;2022-10-15T07:38:36;12.50;99.90
23869;DHT22;12115;47.128;15.422;2022-10-15T07:41:04;12.50;99.90
23869;DHT22;12115;47.128;15.422;2022-10-15T07:43:39;12.50;99.90
23869;DHT22;12115;47.128;15.422;2022-10-15T07:46:06;12.50;99.90
23869;DHT22;12115;47.128;15.422;2022-10-15T07:48:33;12.50;99.90
23869;DHT22;12115;47.128;15.422;2022-10-15T07:51:02;12.50;99.90
23869;DHT22;12115;47.128;15.422;2022-10-15T07:53:30;12.50;99.90
23869;DHT22;12115;47.128;15.422;2022-10-15T07:56:03;12.50;99.90
23869;DHT22;12115;47.128;15.422;2022-10-15T07:58:35;12.50;99.90
23869;DHT22;12115;47.128;15.422;2022-10-15T08:01:05;12.50;99.90
23869;DHT22;12115;47.128;15.422;2022-10-15T08:03:33;12.60;99.90
23869;DHT22;12115;47.128;15.422;2022-10-15T08:06:05;12.60;99.90
23869;DHT22;12115;47.128;15.422;2022-10-15T08:08:34;12.60;99.90
23869;DHT22;12115;47.128;15.422;2022-10-15T08:11:06;12.60;99.90
23869;DHT22;12115;47.128;15.422;2022-10-15T08:13:34;12.70;99.90
23869;DHT22;12115;47.128;15.422;2022-10-15T08:16:01;12.80;99.90
23869;DHT22;12115;47.128;15.422;2022-10-15T08:18:28;12.80;99.90
23869;DHT22;12115;47.128;15.422;2022-10-15T08:21:00;12.80;99.90
23869;DHT22;12115;47.128;15.422;2022-10-15T08:23:27;12.80;99.90
23869;DHT22;12115;47.128;15.422;2022-10-15T08:25:57;12.80;99.90
23869;DHT22;12115;47.128;15.422;2022-10-15T08:28:25;12.90;99.90
23869;DHT22;12115;47.128;15.422;2022-10-15T08:30:52;12.90;99.90
23869;DHT22;12115;47.128;15.422;2022-10-15T08:33:19;12.90;99.90
23869;DHT22;12115;47.128;15.422;2022-10-15T08:35:46;13.00;99.90
23869;DHT22;12115;47.128;15.422;2022-10-15T08:38:13;13.00;99.90
23869;DHT22;12115;47.128;15.422;2022-10-15T08:40:52;13.00;99.90
23869;DHT22;12115;47.128;15.422;2022-10-15T08:43:28;13.00;99.90
23869;DHT22;12115;47.128;15.422;2022-10-15T08:46:00;13.00;99.90
23869;DHT22;12115;47.128;15.422;2022-10-15T08:48:33;12.90;99.90
23869;DHT22;12115;47.128;15.422;2022-10-15T08:53:39;13.10;99.90
23869;DHT22;12115;47.128;15.422;2022-10-15T08:56:20;13.10;99.90
23869;DHT22;12115;47.128;15.422;2022-10-15T08:59:03;13.10;99.90
23869;DHT22;12115;47.128;15.422;2022-10-15T09:01:44;13.20;99.90
23869;DHT22;12115;47.128;15.422;2022-10-15T09:10:17;13.20;99.90
23869;DHT22;12115;47.128;15.422;2022-10-15T09:16:26;13.30;99.90
23869;DHT22;12115;47.128;15.422;2022-10-15T09:19:00;13.40;99.90
23869;DHT22;12115;47.128;15.422;2022-10-15T09:21:40;13.40;99.90
23869;DHT22;12115;47.128;15.422;2022-10-15T09:24:11;13.50;99.90
23869;DHT22;12115;47.128;15.422;2022-10-15T09:29:50;13.60;99.90
23869;DHT22;12115;47.128;15.422;2022-10-15T09:32:28;13.70;99.90
23869;DHT22;12115;47.128;15.422;2022-10-15T09:41:15;13.80;99.90
23869;DHT22;12115;47.128;15.422;2022-10-15T09:43:52;13.80;99.90
23869;DHT22;12115;47.128;15.422;2022-10-15T09:46:50;13.80;99.90
23869;DHT22;12115;47.128;15.422;2022-10-15T09:49:24;13.90;99.90
23869;DHT22;12115;47.128;15.422;2022-10-15T09:58:06;14.20;99.90
23869;DHT22;12115;47.128;15.422;2022-10-15T10:01:09;14.20;99.90
23869;DHT22;12115;47.128;15.422;2022-10-15T10:04:08;14.20;99.90
23869;DHT22;12115;47.128;15.422;2022-10-15T10:06:52;14.30;99.90
23869;DHT22;12115;47.128;15.422;2022-10-15T10:09:51;14.30;99.90
23869;DHT22;12115;47.128;15.422;2022-10-15T10:12:34;14.40;99.90
23869;DHT22;12115;47.128;15.422;2022-10-15T10:18:46;14.40;99.90
23869;DHT22;12115;47.128;15.422;2022-10-15T10:21:36;14.50;99.90
23869;DHT22;12115;47.128;15.422;2022-10-15T10:24:37;14.50;99.90
23869;DHT22;12115;47.128;15.422;2022-10-15T10:27:24;14.50;99.90
23869;DHT22;12115;47.128;15.422;2022-10-15T10:30:13;14.50;99.90
23869;DHT22;12115;47.128;15.422;2022-10-15T10:35:35;14.60;99.90
23869;DHT22;12115;47.128;15.422;2022-10-15T10:38:25;14.70;99.90
23869;DHT22;12115;47.128;15.422;2022-10-15T10:41:08;14.70;99.90
23869;DHT22;12115;47.128;15.422;2022-10-15T10:43:52;14.80;99.90
23869;DHT22;12115;47.128;15.422;2022-10-15T10:46:27;14.80;99.90
23869;DHT22;12115;47.128;15.422;2022-10-15T10:49:05;14.90;99.90
23869;DHT22;12115;47.128;15.422;2022-10-15T10:51:48;15.00;99.90
23869;DHT22;12115;47.128;15.422;2022-10-15T10:54:16;15.10;99.90
23869;DHT22;12115;47.128;15.422;2022-10-15T10:56:57;15.20;99.90
23869;DHT22;12115;47.128;15.422;2022-10-15T10:59:50;15.20;99.90
23869;DHT22;12115;47.128;15.422;2022-10-15T11:02:25;15.20;99.90
23869;DHT22;12115;47.128;15.422;2022-10-15T11:04:55;15.30;99.90
23869;DHT22;12115;47.128;15.422;2022-10-15T11:10:47;15.50;99.90
23869;DHT22;12115;47.128;15.422;2022-10-15T11:16:38;15.60;99.90
23869;DHT22;12115;47.128;15.422;2022-10-15T11:19:32;15.60;99.90
23869;DHT22;12115;47.128;15.422;2022-10-15T11:37:46;15.50;99.90
23869;DHT22;12115;47.128;15.422;2022-10-15T11:46:26;15.50;99.90
23869;DHT22;12115;47.128;15.422;2022-10-15T11:49:09;15.50;99.90
23869;DHT22;12115;47.128;15.422;2022-10-15T11:55:10;15.60;99.90
23869;DHT22;12115;47.128;15.422;2022-10-15T11:57:53;15.60;99.90
23869;DHT22;12115;47.128;15.422;2022-10-15T12:00:40;15.60;99.90
23869;DHT22;12115;47.128;15.422;2022-10-15T12:03:20;15.60;99.90
23869;DHT22;12115;47.128;15.422;2022-10-15T12:06:04;15.70;99.90
23869;DHT22;12115;47.128;15.422;2022-10-15T12:08:38;15.70;99.90
23869;DHT22;12115;47.128;15.422;2022-10-15T12:16:52;15.70;99.90
23869;DHT22;12115;47.128;15.422;2022-10-15T12:19:55;15.70;99.90
23869;DHT22;12115;47.128;15.422;2022-10-15T12:22:39;15.70;99.90
23869;DHT22;12115;47.128;15.422;2022-10-15T12:28:18;15.70;99.90
23869;DHT22;12115;47.128;15.422;2022-10-15T12:30:57;15.80;99.90
23869;DHT22;12115;47.128;15.422;2022-10-15T12:33:54;15.80;99.90
23869;DHT22;12115;47.128;15.422;2022-10-15T12:36:30;15.80;99.90
23869;DHT22;12115;47.128;15.422;2022-10-15T12:39:07;15.80;99.90
23869;DHT22;12115;47.128;15.422;2022-10-15T12:42:21;15.80;99.90
23869;DHT22;12115;47.128;15.422;2022-10-15T12:45:02;15.80;99.90
23869;DHT22;12115;47.128;15.422;2022-10-15T12:47:49;15.90;99.90
23869;DHT22;12115;47.128;15.422;2022-10-15T12:50:26;15.80;99.90
23869;DHT22;12115;47.128;15.422;2022-10-15T12:56:20;15.70;99.90
23869;DHT22;12115;47.128;15.422;2022-10-15T12:59:03;15.80;99.90
23869;DHT22;12115;47.128;15.422;2022-10-15T13:04:36;15.90;99.90
23869;DHT22;12115;47.128;15.422;2022-10-15T13:07:19;16.00;99.90
23869;DHT22;12115;47.128;15.422;2022-10-15T13:09:50;16.00;99.90
23869;DHT22;12115;47.128;15.422;2022-10-15T13:12:26;16.00;99.90
23869;DHT22;12115;47.128;15.422;2022-10-15T13:15:05;16.00;99.90
23869;DHT22;12115;47.128;15.422;2022-10-15T13:17:38;16.00;99.90
23869;DHT22;12115;47.128;15.422;2022-10-15T13:20:37;16.00;99.90
23869;DHT22;12115;47.128;15.422;2022-10-15T13:23:23;16.00;99.90
23869;DHT22;12115;47.128;15.422;2022-10-15T13:26:20;16.10;99.90
23869;DHT22;12115;47.128;15.422;2022-10-15T13:28:49;16.10;99.90
23869;DHT22;12115;47.128;15.422;2022-10-15T13:31:24;16.10;99.90
23869;DHT22;12115;47.128;15.422;2022-10-15T13:36:48;16.00;99.90
23869;DHT22;12115;47.128;15.422;2022-10-15T13:39:42;16.00;99.90
23869;DHT22;12115;47.128;15.422;2022-10-15T13:42:24;16.00;99.90
23869;DHT22;12115;47.128;15.422;2022-10-15T13:45:10;16.00;99.90
23869;DHT22;12115;47.128;15.422;2022-10-15T13:47:51;16.10;99.90
23869;DHT22;12115;47.128;15.422;2022-10-15T13:50:32;16.10;99.90
23869;DHT22;12115;47.128;15.422;2022-10-15T13:53:17;16.00;99.90
23869;DHT22;12115;47.128;15.422;2022-10-15T13:55:54;16.10;99.90
23869;DHT22;12115;47.128;15.422;2022-10-15T13:58:30;16.10;99.90
23869;DHT22;12115;47.128;15.422;2022-10-15T14:01:15;16.10;99.90
23869;DHT22;12115;47.128;15.422;2022-10-15T14:03:50;16.00;99.90
23869;DHT22;12115;47.128;15.422;2022-10-15T14:06:34;16.10;99.90
23869;DHT22;12115;47.128;15.422;2022-10-15T14:09:33;16.10;99.90
23869;DHT22;12115;47.128;15.422;2022-10-15T14:12:10;16.00;99.90
23869;DHT22;12115;47.128;15.422;2022-10-15T14:14:44;16.10;99.90
23869;DHT22;12115;47.128;15.422;2022-10-15T14:17:24;16.10;99.90
23869;DHT22;12115;47.128;15.422;2022-10-15T14:20:03;16.20;99.90
23869;DHT22;12115;47.128;15.422;2022-10-15T14:23:04;16.20;99.90
23869;DHT22;12115;47.128;15.422;2022-10-15T14:25:39;16.30;99.90
23869;DHT22;12115;47.128;15.422;2022-10-15T14:28:27;16.20;99.90
23869;DHT22;12115;47.128;15.422;2022-10-15T14:31:07;16.20;99.90
23869;DHT22;12115;47.128;15.422;2022-10-15T14:40:32;16.20;99.90
23869;DHT22;12115;47.128;15.422;2022-10-15T14:43:31;16.10;99.90
23869;DHT22;12115;47.128;15.422;2022-10-15T14:46:19;16.10;99.90
23869;DHT22;12115;47.128;15.422;2022-10-15T14:48:53;16.10;99.90
23869;DHT22;12115;47.128;15.422;2022-10-15T14:51:45;16.20;99.90
23869;DHT22;12115;47.128;15.422;2022-10-15T14:54:37;16.10;99.90
23869;DHT22;12115;47.128;15.422;2022-10-15T14:57:22;16.20;99.90
23869;DHT22;12115;47.128;15.422;2022-10-15T15:00:04;16.20;99.90
23869;DHT22;12115;47.128;15.422;2022-10-15T15:02:40;16.20;99.90
23869;DHT22;12115;47.128;15.422;2022-10-15T15:08:07;16.20;99.90
23869;DHT22;12115;47.128;15.422;2022-10-15T15:10:44;16.20;99.90
23869;DHT22;12115;47.128;15.422;2022-10-15T15:13:30;16.20;99.90
23869;DHT22;12115;47.128;15.422;2022-10-15T15:16:10;16.20;99.90
23869;DHT22;12115;47.128;15.422;2022-10-15T15:18:39;16.20;99.90
23869;DHT22;12115;47.128;15.422;2022-10-15T15:21:13;16.20;99.90
23869;DHT22;12115;47.128;15.422;2022-10-15T15:23:47;16.20;99.90
23869;DHT22;12115;47.128;15.422;2022-10-15T15:26:16;16.10;99.90
23869;DHT22;12115;47.128;15.422;2022-10-15T15:28:50;16.10;99.90
23869;DHT22;12115;47.128;15.422;2022-10-15T15:31:25;16.10;99.90
23869;DHT22;12115;47.128;15.422;2022-10-15T15:33:59;16.10;99.90
23869;DHT22;12115;47.128;15.422;2022-10-15T15:36:30;16.00;99.90
23869;DHT22;12115;47.128;15.422;2022-10-15T15:39:01;16.00;99.90
23869;DHT22;12115;47.128;15.422;2022-10-15T15:41:31;16.00;99.90
23869;DHT22;12115;47.128;15.422;2022-10-15T15:44:04;15.90;99.90
23869;DHT22;12115;47.128;15.422;2022-10-15T15:46:34;15.90;99.90
23869;DHT22;12115;47.128;15.422;2022-10-15T15:49:05;15.90;99.90
23869;DHT22;12115;47.128;15.422;2022-10-15T15:51:40;15.90;99.90
23869;DHT22;12115;47.128;15.422;2022-10-15T15:54:09;16.00;99.90
23869;DHT22;12115;47.128;15.422;2022-10-15T15:56:43;15.90;99.90
23869;DHT22;12115;47.128;15.422;2022-10-15T15:59:22;15.90;99.90
23869;DHT22;12115;47.128;15.422;2022-10-15T16:01:55;15.90;99.90
23869;DHT22;12115;47.128;15.422;2022-10-15T16:04:29;15.80;99.90
23869;DHT22;12115;47.128;15.422;2022-10-15T16:06:59;15.80;99.90
23869;DHT22;12115;47.128;15.422;2022-10-15T16:09:30;15.80;99.90
23869;DHT22;12115;47.128;15.422;2022-10-15T16:11:59;15.70;99.90
23869;DHT22;12115;47.128;15.422;2022-10-15T16:14:31;15.70;99.90
23869;DHT22;12115;47.128;15.422;2022-10-15T16:17:06;15.70;99.90
23869;DHT22;12115;47.128;15.422;2022-10-15T16:19:33;15.60;99.90
23869;DHT22;12115;47.128;15.422;2022-10-15T16:22:07;15.60;99.90
23869;DHT22;12115;47.128;15.422;2022-10-15T16:24:49;15.50;99.90
23869;DHT22;12115;47.128;15.422;2022-10-15T16:27:22;15.40;99.90
23869;DHT22;12115;47.128;15.422;2022-10-15T16:29:54;15.40;99.90
23869;DHT22;12115;47.128;15.422;2022-10-15T16:32:26;15.30;99.90
23869;DHT22;12115;47.128;15.422;2022-10-15T16:34:56;15.20;99.90
23869;DHT22;12115;47.128;15.422;2022-10-15T16:37:26;15.20;99.90
23869;DHT22;12115;47.128;15.422;2022-10-15T16:40:02;15.10;99.90
23869;DHT22;12115;47.128;15.422;2022-10-15T16:42:33;15.10;99.90
23869;DHT22;12115;47.128;15.422;2022-10-15T16:45:00;15.10;99.90
23869;DHT22;12115;47.128;15.422;2022-10-15T16:47:27;15.00;99.90
23869;DHT22;12115;47.128;15.422;2022-10-15T16:49:54;14.90;99.90
23869;DHT22;12115;47.128;15.422;2022-10-15T16:52:21;14.80;99.90
23869;DHT22;12115;47.128;15.422;2022-10-15T16:54:48;14.70;99.90
23869;DHT22;12115;47.128;15.422;2022-10-15T16:57:16;14.60;99.90
23869;DHT22;12115;47.128;15.422;2022-10-15T16:59:42;14.60;99.90
23869;DHT22;12115;47.128;15.422;2022-10-15T17:02:10;14.60;99.90
23869;DHT22;12115;47.128;15.422;2022-10-15T17:04:38;14.50;99.90
23869;DHT22;12115;47.128;15.422;2022-10-15T17:07:05;14.50;99.90
23869;DHT22;12115;47.128;15.422;2022-10-15T17:09:32;14.30;99.90
23869;DHT22;12115;47.128;15.422;2022-10-15T17:11:59;14.30;99.90
23869;DHT22;12115;47.128;15.422;2022-10-15T17:14:27;14.30;99.90
23869;DHT22;12115;47.128;15.422;2022-10-15T17:16:54;14.30;99.90
23869;DHT22;12115;47.128;15.422;2022-10-15T17:19:23;14.30;99.90
23869;DHT22;12115;47.128;15.422;2022-10-15T17:21:57;14.20;99.90
23869;DHT22;12115;47.128;15.422;2022-10-15T17:24:28;14.30;99.90
23869;DHT22;12115;47.128;15.422;2022-10-15T17:26:55;14.20;99.90
23869;DHT22;12115;47.128;15.422;2022-10-15T17:29:23;14.20;99.90
23869;DHT22;12115;47.128;15.422;2022-10-15T17:32:01;14.30;99.90
23869;DHT22;12115;47.128;15.422;2022-10-15T17:34:28;14.20;99.90
23869;DHT22;12115;47.128;15.422;2022-10-15T17:36:57;14.20;99.90
23869;DHT22;12115;47.128;15.422;2022-10-15T17:39:24;14.20;99.90
23869;DHT22;12115;47.128;15.422;2022-10-15T17:41:52;14.20;99.90
23869;DHT22;12115;47.128;15.422;2022-10-15T17:44:19;14.10;99.90
23869;DHT22;12115;47.128;15.422;2022-10-15T17:46:47;14.10;99.90
23869;DHT22;12115;47.128;15.422;2022-10-15T17:49:25;14.00;99.90
23869;DHT22;12115;47.128;15.422;2022-10-15T17:51:53;14.00;99.90
23869;DHT22;12115;47.128;15.422;2022-10-15T17:54:20;14.00;99.90
23869;DHT22;12115;47.128;15.422;2022-10-15T17:56:48;13.90;99.90